sensor_id;sensor_type;location;lat;lon;timestamp;P1;durP1;ratioP1;P2;durP2;ratioP2
57335;SDS011;43171;50.994;18.204;2023-04-24T00:10:55;10.30;;;7.50;;
57335;SDS011;43171;50.994;18.204;2023-04-24T00:13:21;9.90;;;7.40;;
57335;SDS011;43171;50.994;18.204;2023-04-24T00:23:04;9.50;;;5.30;;
57335;SDS011;43171;50.994;18.204;2023-04-24T00:32:46;8.70;;;6.50;;
57335;SDS011;43171;50.994;18.204;2023-04-24T00:42:28;10.70;;;5.60;;
57335;SDS011;43171;50.994;18.204;2023-04-24T00:52:13;3.60;;;3.30;;
57335;SDS011;43171;50.994;18.204;2023-04-24T01:02:01;5.90;;;5.40;;
57335;SDS011;43171;50.994;18.204;2023-04-24T01:11:44;14.20;;;6.10;;
57335;SDS011;43171;50.994;18.204;2023-04-24T01:21:26;10.30;;;6.00;;
57335;SDS011;43171;50.994;18.204;2023-04-24T01:31:13;8.30;;;6.10;;
57335;SDS011;43171;50.994;18.204;2023-04-24T01:40:58;8.30;;;2.80;;
57335;SDS011;43171;50.994;18.204;2023-04-24T01:50:40;8.00;;;6.00;;
57335;SDS011;43171;50.994;18.204;2023-04-24T02:00:22;4.80;;;4.20;;
57335;SDS011;43171;50.994;18.204;2023-04-24T02:10:06;5.00;;;4.50;;
57335;SDS011;43171;50.994;18.204;2023-04-24T02:19:48;14.20;;;5.20;;
57335;SDS011;43171;50.994;18.204;2023-04-24T02:29:31;8.30;;;6.10;;
57335;SDS011;43171;50.994;18.204;2023-04-24T02:39:14;5.10;;;3.90;;
57335;SDS011;43171;50.994;18.204;2023-04-24T02:49:01;6.40;;;5.80;;
57335;SDS011;43171;50.994;18.204;2023-04-24T02:58:43;8.90;;;8.00;;
57335;SDS011;43171;50.994;18.204;2023-04-24T03:08:31;6.70;;;4.50;;
57335;SDS011;43171;50.994;18.204;2023-04-24T03:18:14;10.00;;;7.00;;
57335;SDS011;43171;50.994;18.204;2023-04-24T03:27:56;8.70;;;7.90;;
57335;SDS011;43171;50.994;18.204;2023-04-24T03:37:38;11.60;;;8.50;;
57335;SDS011;43171;50.994;18.204;2023-04-24T03:47:22;11.50;;;8.30;;
57335;SDS011;43171;50.994;18.204;2023-04-24T03:57:05;5.00;;;4.60;;
57335;SDS011;43171;50.994;18.204;2023-04-24T04:06:47;10.50;;;6.70;;
57335;SDS011;43171;50.994;18.204;2023-04-24T04:16:30;11.00;;;8.00;;
57335;SDS011;43171;50.994;18.204;2023-04-24T04:26:13;10.10;;;7.80;;
57335;SDS011;43171;50.994;18.204;2023-04-24T04:35:56;9.70;;;8.10;;
57335;SDS011;43171;50.994;18.204;2023-04-24T04:45:40;9.80;;;8.80;;
57335;SDS011;43171;50.994;18.204;2023-04-24T04:55:25;8.90;;;7.60;;
57335;SDS011;43171;50.994;18.204;2023-04-24T05:05:08;8.40;;;7.40;;
57335;SDS011;43171;50.994;18.204;2023-04-24T05:09:59;14.00;;;8.90;;
57335;SDS011;43171;50.994;18.204;2023-04-24T05:19:42;11.80;;;8.10;;
57335;SDS011;43171;50.994;18.204;2023-04-24T05:29:27;10.60;;;6.50;;
57335;SDS011;43171;50.994;18.204;2023-04-24T05:39:12;9.80;;;6.70;;
57335;SDS011;43171;50.994;18.204;2023-04-24T05:48:55;5.50;;;4.20;;
57335;SDS011;43171;50.994;18.204;2023-04-24T05:58:37;12.20;;;7.90;;
57335;SDS011;43171;50.994;18.204;2023-04-24T06:08:20;13.30;;;6.80;;
57335;SDS011;43171;50.994;18.204;2023-04-24T06:18:03;8.50;;;7.50;;
57335;SDS011;43171;50.994;18.204;2023-04-24T06:27:46;11.20;;;5.20;;
57335;SDS011;43171;50.994;18.204;2023-04-24T06:37:29;12.20;;;6.10;;
57335;SDS011;43171;50.994;18.204;2023-04-24T06:47:15;10.80;;;7.80;;
57335;SDS011;43171;50.994;18.204;2023-04-24T06:56:58;11.40;;;5.90;;
57335;SDS011;43171;50.994;18.204;2023-04-24T07:06:43;13.60;;;7.20;;
57335;SDS011;43171;50.994;18.204;2023-04-24T07:16:35;9.00;;;6.40;;
57335;SDS011;43171;50.994;18.204;2023-04-24T07:21:26;11.70;;;7.70;;
57335;SDS011;43171;50.994;18.204;2023-04-24T07:31:10;7.10;;;6.40;;
57335;SDS011;43171;50.994;18.204;2023-04-24T07:40:55;13.80;;;5.90;;
57335;SDS011;43171;50.994;18.204;2023-04-24T07:50:40;11.00;;;6.60;;
57335;SDS011;43171;50.994;18.204;2023-04-24T08:00:23;5.50;;;4.90;;
57335;SDS011;43171;50.994;18.204;2023-04-24T08:10:09;6.20;;;5.60;;
57335;SDS011;43171;50.994;18.204;2023-04-24T08:19:52;3.40;;;3.10;;
57335;SDS011;43171;50.994;18.204;2023-04-24T08:29:40;6.00;;;5.40;;
57335;SDS011;43171;50.994;18.204;2023-04-24T08:39:23;5.60;;;5.00;;
57335;SDS011;43171;50.994;18.204;2023-04-24T08:44:14;8.20;;;5.90;;
57335;SDS011;43171;50.994;18.204;2023-04-24T08:53:58;2.80;;;2.60;;
57335;SDS011;43171;50.994;18.204;2023-04-24T09:03:42;25.80;;;5.10;;
57335;SDS011;43171;50.994;18.204;2023-04-24T09:13:27;5.70;;;3.40;;
57335;SDS011;43171;50.994;18.204;2023-04-24T09:23:26;6.70;;;4.80;;
57335;SDS011;43171;50.994;18.204;2023-04-24T09:38:59;3.40;;;3.00;;
57335;SDS011;43171;50.994;18.204;2023-04-24T09:48:47;10.40;;;3.40;;
57335;SDS011;43171;50.994;18.204;2023-04-24T09:58:37;8.60;;;4.10;;
57335;SDS011;43171;50.994;18.204;2023-04-24T10:08:24;4.60;;;4.20;;
57335;SDS011;43171;50.994;18.204;2023-04-24T10:18:07;3.40;;;3.10;;
57335;SDS011;43171;50.994;18.204;2023-04-24T10:27:55;3.70;;;3.40;;
57335;SDS011;43171;50.994;18.204;2023-04-24T10:37:42;6.20;;;5.60;;
57335;SDS011;43171;50.994;18.204;2023-04-24T10:47:57;6.10;;;4.50;;
57335;SDS011;43171;50.994;18.204;2023-04-24T10:58:04;6.50;;;5.90;;
57335;SDS011;43171;50.994;18.204;2023-04-24T11:18:15;7.00;;;4.30;;
57335;SDS011;43171;50.994;18.204;2023-04-24T11:35:27;3.60;;;3.30;;
57335;SDS011;43171;50.994;18.204;2023-04-24T11:52:33;6.20;;;5.40;;
57335;SDS011;43171;50.994;18.204;2023-04-24T12:02:25;4.30;;;3.30;;
57335;SDS011;43171;50.994;18.204;2023-04-24T12:12:13;5.00;;;4.50;;
57335;SDS011;43171;50.994;18.204;2023-04-24T12:22:10;10.20;;;4.20;;
57335;SDS011;43171;50.994;18.204;2023-04-24T12:32:21;4.00;;;3.70;;
57335;SDS011;43171;50.994;18.204;2023-04-24T12:42:03;1.40;;;1.30;;
57335;SDS011;43171;50.994;18.204;2023-04-24T12:51:51;3.60;;;3.30;;
57335;SDS011;43171;50.994;18.204;2023-04-24T12:56:42;5.00;;;4.50;;
57335;SDS011;43171;50.994;18.204;2023-04-24T13:06:23;4.60;;;4.20;;
57335;SDS011;43171;50.994;18.204;2023-04-24T13:23:23;4.90;;;4.50;;
57335;SDS011;43171;50.994;18.204;2023-04-24T13:30:40;8.40;;;6.40;;
57335;SDS011;43171;50.994;18.204;2023-04-24T13:33:06;9.90;;;6.60;;
57335;SDS011;43171;50.994;18.204;2023-04-24T13:42:49;4.50;;;4.10;;
57335;SDS011;43171;50.994;18.204;2023-04-24T13:52:34;4.70;;;4.30;;
57335;SDS011;43171;50.994;18.204;2023-04-24T14:02:16;6.10;;;5.50;;
57335;SDS011;43171;50.994;18.204;2023-04-24T14:11:59;9.40;;;5.60;;
57335;SDS011;43171;50.994;18.204;2023-04-24T14:21:43;5.70;;;5.10;;
57335;SDS011;43171;50.994;18.204;2023-04-24T14:31:25;9.70;;;8.70;;
57335;SDS011;43171;50.994;18.204;2023-04-24T14:41:07;5.70;;;5.10;;
57335;SDS011;43171;50.994;18.204;2023-04-24T14:50:52;8.80;;;6.10;;
57335;SDS011;43171;50.994;18.204;2023-04-24T15:00:35;9.40;;;7.90;;
57335;SDS011;43171;50.994;18.204;2023-04-24T15:10:18;7.60;;;6.80;;
57335;SDS011;43171;50.994;18.204;2023-04-24T15:20:01;7.70;;;6.90;;
57335;SDS011;43171;50.994;18.204;2023-04-24T15:29:44;7.70;;;6.90;;
57335;SDS011;43171;50.994;18.204;2023-04-24T15:39:26;17.00;;;8.80;;
57335;SDS011;43171;50.994;18.204;2023-04-24T15:49:10;30.30;;;12.40;;
57335;SDS011;43171;50.994;18.204;2023-04-24T15:58:53;15.90;;;9.40;;
57335;SDS011;43171;50.994;18.204;2023-04-24T16:08:36;16.00;;;9.30;;
57335;SDS011;43171;50.994;18.204;2023-04-24T16:18:19;14.00;;;10.50;;
57335;SDS011;43171;50.994;18.204;2023-04-24T16:23:11;17.00;;;13.70;;
57335;SDS011;43171;50.994;18.204;2023-04-24T16:32:53;16.80;;;11.50;;
57335;SDS011;43171;50.994;18.204;2023-04-24T16:42:36;18.40;;;12.10;;
57335;SDS011;43171;50.994;18.204;2023-04-24T16:52:19;11.80;;;10.60;;
57335;SDS011;43171;50.994;18.204;2023-04-24T17:02:02;16.70;;;12.80;;
57335;SDS011;43171;50.994;18.204;2023-04-24T17:11:45;15.90;;;12.00;;
57335;SDS011;43171;50.994;18.204;2023-04-24T17:21:30;18.50;;;15.10;;
57335;SDS011;43171;50.994;18.204;2023-04-24T17:31:12;10.80;;;7.80;;
57335;SDS011;43171;50.994;18.204;2023-04-24T17:40:57;15.40;;;12.50;;
57335;SDS011;43171;50.994;18.204;2023-04-24T17:50:42;16.50;;;12.50;;
57335;SDS011;43171;50.994;18.204;2023-04-24T18:00:29;16.80;;;12.40;;
57335;SDS011;43171;50.994;18.204;2023-04-24T18:10:23;11.80;;;9.20;;
57335;SDS011;43171;50.994;18.204;2023-04-24T18:20:07;17.60;;;11.30;;
57335;SDS011;43171;50.994;18.204;2023-04-24T18:29:50;4.20;;;3.80;;
57335;SDS011;43171;50.994;18.204;2023-04-24T18:39:32;3.70;;;2.40;;
57335;SDS011;43171;50.994;18.204;2023-04-24T18:49:16;2.80;;;2.10;;
57335;SDS011;43171;50.994;18.204;2023-04-24T18:58:58;7.40;;;1.50;;
57335;SDS011;43171;50.994;18.204;2023-04-24T19:08:40;1.80;;;1.20;;
57335;SDS011;43171;50.994;18.204;2023-04-24T19:18:24;6.40;;;2.60;;
57335;SDS011;43171;50.994;18.204;2023-04-24T19:25:41;4.20;;;2.40;;
57335;SDS011;43171;50.994;18.204;2023-04-24T19:35:25;4.50;;;2.10;;
57335;SDS011;43171;50.994;18.204;2023-04-24T19:45:08;2.30;;;2.00;;
57335;SDS011;43171;50.994;18.204;2023-04-24T19:54:52;4.20;;;2.30;;
57335;SDS011;43171;50.994;18.204;2023-04-24T20:04:35;4.70;;;3.30;;
57335;SDS011;43171;50.994;18.204;2023-04-24T20:14:18;4.80;;;3.70;;
57335;SDS011;43171;50.994;18.204;2023-04-24T20:24:01;5.50;;;2.80;;
57335;SDS011;43171;50.994;18.204;2023-04-24T20:33:44;2.40;;;2.00;;
57335;SDS011;43171;50.994;18.204;2023-04-24T20:41:01;5.50;;;3.50;;
57335;SDS011;43171;50.994;18.204;2023-04-24T20:50:44;2.20;;;1.90;;
57335;SDS011;43171;50.994;18.204;2023-04-24T20:55:36;5.10;;;3.30;;
57335;SDS011;43171;50.994;18.204;2023-04-24T21:05:18;4.10;;;3.10;;
57335;SDS011;43171;50.994;18.204;2023-04-24T21:15:00;3.90;;;2.70;;
57335;SDS011;43171;50.994;18.204;2023-04-24T21:24:42;3.90;;;3.60;;
57335;SDS011;43171;50.994;18.204;2023-04-24T21:27:08;9.10;;;5.40;;
57335;SDS011;43171;50.994;18.204;2023-04-24T21:36:50;9.50;;;7.80;;
57335;SDS011;43171;50.994;18.204;2023-04-24T21:41:42;23.70;;;19.60;;
57335;SDS011;43171;50.994;18.204;2023-04-24T21:51:24;19.40;;;16.20;;
57335;SDS011;43171;50.994;18.204;2023-04-24T22:01:06;27.20;;;17.60;;
57335;SDS011;43171;50.994;18.204;2023-04-24T22:10:49;14.10;;;9.60;;
57335;SDS011;43171;50.994;18.204;2023-04-24T22:20:32;8.90;;;5.00;;
57335;SDS011;43171;50.994;18.204;2023-04-24T22:30:14;15.10;;;12.40;;
57335;SDS011;43171;50.994;18.204;2023-04-24T22:39:57;14.00;;;9.10;;
57335;SDS011;43171;50.994;18.204;2023-04-24T22:49:44;9.90;;;8.60;;
57335;SDS011;43171;50.994;18.204;2023-04-24T22:59:30;17.10;;;11.20;;
57335;SDS011;43171;50.994;18.204;2023-04-24T23:09:16;15.40;;;10.60;;
57335;SDS011;43171;50.994;18.204;2023-04-24T23:19:02;11.10;;;6.80;;
57335;SDS011;43171;50.994;18.204;2023-04-24T23:36:01;9.30;;;5.80;;
57335;SDS011;43171;50.994;18.204;2023-04-24T23:45:43;9.50;;;6.10;;
57335;SDS011;43171;50.994;18.204;2023-04-24T23:55:25;5.80;;;4.30;;
